Ana Sayfa
METAR-TAF:

METAR-TAF

Havaalanları :

Pekin Başkent Uluslararası Havalimanı

Pekin, Çin

Enlem: 39-56N, Boylam: 116-17E, yükseklik: 55 m

Güncel hava durumu gözlemi

Rapor saat 12:00 UTC de 28 dakika önce yapıldı.
Rüzgar kuzeybatıdan 14 kt
Sıcaklık 5°C
Nem 26%
Basınç 1031 hPa
Görüş mesafesi 10 km veya daha fazla
1500 m altında bulut yok ve kümülonimbus yok

METAR: ZBAA 131200Z 32007MPS CAVOK 05/M13 Q1031 NOSIG

Saat: 20:28 (12:28 UTC)

Tahmin

Rapor saat 09:20 UTC de 3 saat ve 8 dakika önce yapıldı.
Ayın 13'si saat 12 UTC'den ayın 14'si saat 12 UTC'ye kadar geçerli Tahmin
Rüzgar kuzey/kuzeybatıdan 8 kt
Görüş mesafesi 10 km veya daha fazla
1500 m altında bulut yok ve kümülonimbus yok

TAF: ZBAA 130920Z 1312/1412 33004MPS CAVOK TX08/1407Z TNM07/21Z

4.000'den fazla havaalanı için hava durumu gözlemleri ve tahminleri (METAR ve TAF raporları).

Kullanılabilir istasyonlar harita üzerinde sarı ve kırmızı noktalarla gösterilir.

İstasyonun adını görmek için fareyi noktanın üzerinde gezdirin.

Sonrasında hava gözlem ve tahminlerini görmek için tıklayın.

Haritayı değiştirmek için: yaklaştırmak için siyah artı işaretli yeşil düğmeye ve uzaklaştırmak için de eksi işaretli düğmeye hızla tıklayın; bitişik haritalar için yeşil okları kullanın.


METAR-TAF: